Abingdon, United Kingdom
Current Conditions -  °F | °C
As of 9:28 AM on Thursday 27 Nov 2014 (Local Time) from EGUB Reporting Station
Haze Haze  
Wind Chill: 44°   Ceiling: 200
Heat Index: 46°   Visibility: 1.2mi
Dew Point: 46°   Wind: 6mph
Humidity: 100%   Direction: 260°W
Pressure: 29.62"   Gusts: NA
Location:  51.67°N, 1.29°W
Report Text: EGUB 270928Z 26005KT 2000 BR OVC002 08/08 Q1003 AMB BECMG OVC003 YLO2
Loading
Personal Weather Stations






























Interactive Weather Map New forecast layout! Learn more

10-Day Weather Forecast

Advertisements
Track Severe Weather on mobile